createdAt,value
2022-12-19T00:00:32.086Z,67.82
2022-12-19T00:03:01.988Z,68.40
2022-12-19T00:05:32.147Z,68.92
2022-12-19T00:08:08.788Z,70.85
2022-12-19T00:10:33.602Z,63.70
2022-12-19T00:13:03.344Z,67.53
2022-12-19T00:15:34.940Z,66.67
2022-12-19T00:18:05.236Z,72.17
2022-12-19T00:20:35.035Z,68.90
2022-12-19T00:23:04.771Z,72.60
2022-12-19T00:25:34.366Z,72.42
2022-12-19T00:28:06.868Z,69.43
2022-12-19T00:30:36.625Z,66.83
2022-12-19T00:33:06.619Z,71.30
2022-12-19T00:35:36.368Z,65.47
2022-12-19T00:38:08.177Z,69.90
2022-12-19T00:40:37.940Z,68.63
2022-12-19T00:43:09.457Z,75.33
2022-12-19T00:45:40.132Z,72.57
2022-12-19T00:48:11.175Z,69.23
2022-12-19T00:50:42.573Z,76.33
2022-12-19T00:53:12.315Z,76.47
2022-12-19T00:55:42.068Z,67.67
2022-12-19T00:58:11.800Z,68.37
2022-12-19T01:00:42.269Z,72.73
2022-12-19T01:03:14.716Z,78.97
2022-12-19T01:05:44.554Z,81.13
2022-12-19T01:08:14.552Z,74.67
2022-12-19T01:10:50.469Z,72.10
2022-12-19T01:13:22.145Z,72.97
2022-12-19T01:15:51.896Z,71.60
2022-12-19T01:18:21.656Z,74.58
2022-12-19T01:20:51.415Z,78.23
2022-12-19T01:23:21.196Z,70.97
2022-12-19T01:25:53.976Z,80.00
2022-12-19T01:28:25.206Z,72.35
2022-12-19T01:30:55.503Z,79.60
2022-12-19T01:33:25.271Z,87.13
2022-12-19T01:35:56.218Z,80.77
2022-12-19T01:38:25.655Z,76.45
2022-12-19T01:40:58.059Z,79.83
2022-12-19T01:43:31.011Z,75.47
2022-12-19T01:46:04.478Z,80.60
2022-12-19T01:48:37.503Z,80.07
2022-12-19T01:51:13.052Z,85.00
2022-12-19T01:53:49.416Z,73.52
2022-12-19T01:56:19.119Z,80.23
2022-12-19T01:58:50.880Z,78.13
2022-12-19T02:01:22.420Z,81.40
2022-12-19T02:03:53.494Z,81.87
2022-12-19T02:06:25.082Z,79.77
2022-12-19T02:08:56.675Z,77.53
2022-12-19T02:11:26.845Z,77.80
2022-12-19T02:13:56.979Z,74.95
2022-12-19T02:16:57.664Z,75.97
2022-12-19T02:19:52.154Z,77.80
2022-12-19T02:22:25.529Z,81.07
2022-12-19T02:25:13.174Z,77.87
2022-12-19T02:27:54.870Z,78.27
2022-12-19T02:30:43.511Z,78.57
2022-12-19T02:33:28.621Z,85.43
2022-12-19T02:36:01.764Z,73.90
2022-12-19T02:39:05.817Z,77.17
2022-12-19T02:41:40.886Z,71.00
2022-12-19T02:44:23.603Z,76.82
2022-12-19T02:46:54.338Z,77.72
2022-12-19T02:49:30.756Z,73.62
2022-12-19T02:51:57.877Z,69.90
2022-12-19T02:54:27.622Z,75.08
2022-12-19T02:57:06.004Z,80.30
2022-12-19T02:59:53.997Z,83.50
2022-12-19T03:03:03.311Z,73.50
2022-12-19T03:05:47.718Z,70.63
2022-12-19T03:08:28.842Z,72.23
2022-12-19T03:11:02.077Z,70.33
2022-12-19T03:13:38.013Z,80.17
2022-12-19T03:16:11.786Z,69.12
2022-12-19T03:18:42.018Z,72.15
2022-12-19T03:21:20.620Z,68.50
2022-12-19T03:23:53.622Z,68.87
2022-12-19T03:26:26.108Z,73.97
2022-12-19T03:29:04.322Z,67.65
2022-12-19T03:31:36.778Z,70.60
2022-12-19T03:34:11.200Z,72.97
2022-12-19T03:36:44.709Z,70.97
2022-12-19T03:39:15.612Z,65.70
2022-12-19T03:42:03.892Z,69.67
2022-12-19T03:44:36.991Z,67.53
2022-12-19T03:47:18.624Z,76.60
2022-12-19T03:49:49.645Z,62.33
2022-12-19T03:52:31.254Z,62.00
2022-12-19T03:55:20.777Z,69.33
2022-12-19T03:57:56.877Z,68.05
2022-12-19T04:00:27.757Z,67.00
2022-12-19T04:02:59.747Z,65.32
2022-12-19T04:05:30.407Z,63.80
2022-12-19T04:08:05.501Z,67.22
2022-12-19T04:10:38.321Z,64.60
2022-12-19T04:13:12.015Z,67.17
2022-12-19T04:15:47.359Z,66.33
2022-12-19T04:18:19.538Z,59.70
2022-12-19T04:20:58.076Z,65.83
2022-12-19T04:23:36.403Z,60.07
2022-12-19T04:26:09.681Z,66.37
2022-12-19T04:28:48.515Z,59.00
2022-12-19T04:31:20.805Z,63.70
2022-12-19T04:33:50.996Z,58.08
2022-12-19T04:36:20.918Z,55.20
2022-12-19T04:38:50.983Z,56.68
2022-12-19T04:41:20.732Z,65.07
2022-12-19T04:43:50.806Z,55.03
2022-12-19T04:46:20.580Z,58.63
2022-12-19T04:48:50.640Z,53.80
2022-12-19T04:51:20.455Z,49.20
2022-12-19T04:53:50.270Z,57.23
2022-12-19T04:56:20.123Z,58.85
2022-12-19T04:58:49.964Z,53.40
2022-12-19T05:01:19.567Z,53.60
2022-12-19T05:03:54.565Z,54.67
2022-12-19T05:06:21.315Z,51.13
2022-12-19T05:08:51.185Z,56.37
2022-12-19T05:11:21.599Z,47.78
2022-12-19T05:13:51.671Z,49.67
2022-12-19T05:16:21.563Z,55.90
2022-12-19T05:18:51.314Z,52.20
2022-12-19T05:21:21.643Z,57.90
2022-12-19T05:23:51.948Z,53.80
2022-12-19T05:26:21.723Z,54.48
2022-12-19T05:28:51.771Z,49.67
2022-12-19T05:31:22.803Z,46.10
2022-12-19T05:33:52.533Z,48.35
2022-12-19T05:36:25.386Z,45.95
2022-12-19T05:38:54.117Z,40.40
2022-12-19T05:41:23.728Z,38.25
2022-12-19T05:43:56.233Z,40.52
2022-12-19T05:46:27.209Z,45.17
2022-12-19T05:48:57.336Z,43.97
2022-12-19T05:51:28.230Z,39.08
2022-12-19T05:53:58.266Z,42.83
2022-12-19T05:56:28.121Z,41.67
2022-12-19T05:58:57.971Z,40.23
2022-12-19T06:01:29.193Z,38.35
2022-12-19T06:03:59.149Z,40.03
2022-12-19T06:06:29.213Z,35.08
2022-12-19T06:09:00.123Z,36.10
2022-12-19T06:11:29.992Z,42.43
2022-12-19T06:13:59.911Z,34.83
2022-12-19T06:16:29.711Z,37.93
2022-12-19T06:18:59.755Z,34.13
2022-12-19T06:21:29.508Z,35.73
2022-12-19T06:23:59.278Z,33.63
2022-12-19T06:26:29.446Z,34.20
2022-12-19T06:28:59.279Z,29.03
2022-12-19T06:31:29.064Z,32.60
2022-12-19T06:33:58.898Z,31.17
2022-12-19T06:36:30.600Z,29.50
2022-12-19T06:39:00.446Z,31.67
2022-12-19T06:41:47.883Z,29.07
2022-12-19T06:44:18.468Z,27.80
2022-12-19T06:46:48.275Z,25.67
2022-12-19T06:49:18.071Z,24.87
2022-12-19T06:51:47.891Z,28.20
2022-12-19T06:54:17.383Z,27.98
2022-12-19T06:56:47.201Z,25.13
2022-12-19T06:59:17.908Z,25.40
2022-12-19T07:01:59.590Z,25.87
2022-12-19T07:04:35.789Z,25.47
2022-12-19T07:07:05.910Z,22.60
2022-12-19T07:09:36.051Z,22.83
2022-12-19T07:12:08.650Z,23.62
2022-12-19T07:14:38.543Z,23.27
2022-12-19T07:17:08.472Z,23.93
2022-12-19T07:19:39.661Z,23.10
2022-12-19T07:22:11.703Z,22.17
2022-12-19T07:24:41.504Z,22.03
2022-12-19T07:27:11.548Z,23.93
2022-12-19T07:29:41.383Z,22.03
2022-12-19T07:32:11.974Z,26.68
2022-12-19T07:34:41.812Z,19.93
2022-12-19T07:37:11.652Z,22.27
2022-12-19T07:39:41.472Z,24.37
2022-12-19T07:42:12.235Z,21.58
2022-12-19T07:44:41.981Z,19.57
2022-12-19T07:47:12.019Z,21.33
2022-12-19T07:49:41.785Z,22.67
2022-12-19T07:52:12.110Z,22.50
2022-12-19T07:54:41.881Z,22.73
2022-12-19T07:57:11.645Z,18.73
2022-12-19T07:59:41.430Z,20.13
2022-12-19T08:02:11.994Z,21.25
2022-12-19T08:04:41.860Z,21.30
2022-12-19T08:07:11.623Z,17.80
2022-12-19T08:09:41.457Z,18.60
2022-12-19T08:12:12.092Z,15.66
2022-12-19T08:14:42.197Z,19.42
2022-12-19T08:17:20.358Z,20.97
2022-12-19T08:19:43.514Z,19.17
2022-12-19T08:22:13.481Z,20.10
2022-12-19T08:24:43.346Z,19.27
2022-12-19T08:27:13.180Z,15.30
2022-12-19T08:29:42.938Z,19.07
2022-12-19T08:32:18.644Z,15.13
2022-12-19T08:34:44.718Z,19.27
2022-12-19T08:37:14.814Z,16.57
2022-12-19T08:39:45.186Z,16.75
2022-12-19T08:42:15.136Z,17.50
2022-12-19T08:44:44.917Z,15.63
2022-12-19T08:47:14.951Z,18.97
2022-12-19T08:49:44.674Z,18.47
2022-12-19T08:52:14.456Z,16.07
2022-12-19T08:54:46.034Z,16.83
2022-12-19T08:57:15.795Z,17.73
2022-12-19T08:59:45.603Z,17.83
2022-12-19T09:02:16.720Z,15.90
2022-12-19T09:06:02.217Z,15.20
2022-12-19T09:07:18.606Z,17.60
2022-12-19T09:09:48.700Z,15.00
2022-12-19T09:12:18.235Z,13.88
2022-12-19T09:14:48.049Z,16.77
2022-12-19T09:17:18.193Z,19.52
2022-12-19T09:19:48.475Z,14.07
2022-12-19T09:22:18.247Z,14.65
2022-12-19T09:24:48.059Z,15.63
2022-12-19T09:27:17.762Z,13.77
2022-12-19T09:29:47.304Z,11.53
2022-12-19T09:32:17.100Z,12.43
2022-12-19T09:34:46.914Z,15.23
2022-12-19T09:37:17.809Z,12.43
2022-12-19T09:39:48.706Z,17.23
2022-12-19T09:42:23.915Z,13.50
2022-12-19T09:45:19.031Z,13.13
2022-12-19T09:47:46.729Z,13.20
2022-12-19T09:50:35.635Z,15.17
2022-12-19T09:53:20.231Z,14.83
2022-12-19T09:55:52.465Z,12.63
2022-12-19T09:58:40.286Z,15.27
2022-12-19T10:01:13.402Z,10.48
2022-12-19T10:07:18.164Z,11.18
2022-12-19T10:11:06.888Z,17.83
2022-12-19T10:12:38.548Z,9.23
2022-12-19T10:14:48.829Z,10.97
2022-12-19T10:17:25.261Z,12.87
2022-12-19T10:20:22.328Z,12.83
2022-12-19T10:23:29.377Z,14.28
2022-12-19T10:26:06.828Z,10.13
2022-12-19T10:28:51.623Z,10.00
2022-12-19T10:31:42.405Z,12.40
2022-12-19T10:34:25.064Z,11.37
2022-12-19T10:37:27.132Z,11.22
2022-12-19T10:39:38.654Z,10.82
2022-12-19T10:42:33.617Z,12.80
2022-12-19T10:45:06.509Z,10.10
2022-12-19T10:47:37.075Z,10.30
2022-12-19T10:53:08.572Z,11.68
2022-12-19T10:55:50.052Z,9.63
2022-12-19T10:58:22.941Z,14.68
2022-12-19T11:01:05.101Z,10.03
2022-12-19T11:03:36.356Z,10.53
2022-12-19T11:06:09.975Z,9.00
2022-12-19T11:08:39.775Z,12.73
2022-12-19T11:13:08.483Z,10.00
2022-12-19T11:19:47.886Z,10.13
2022-12-19T11:24:42.784Z,12.63
2022-12-19T11:29:19.252Z,7.97
2022-12-19T11:29:29.884Z,7.85
2022-12-19T11:29:37.052Z,8.43
2022-12-19T11:30:41.738Z,8.03
2022-12-19T11:32:45.430Z,9.30
2022-12-19T11:35:24.835Z,10.05
2022-12-19T11:38:00.448Z,10.25
2022-12-19T11:40:48.997Z,8.63
2022-12-19T11:46:05.304Z,9.70
2022-12-19T11:49:06.558Z,11.20
2022-12-19T11:51:44.922Z,8.30
2022-12-19T11:54:20.441Z,13.83
2022-12-19T11:56:50.050Z,8.73
2022-12-19T11:59:23.012Z,14.03
2022-12-19T12:02:30.423Z,8.80
2022-12-19T12:05:14.354Z,11.45
2022-12-19T12:09:23.163Z,12.23
2022-12-19T12:15:00.926Z,9.95
2022-12-19T12:19:08.579Z,9.60
2022-12-19T12:28:25.674Z,9.87
2022-12-19T12:31:10.965Z,9.73
2022-12-19T12:31:14.252Z,10.80
2022-12-19T12:31:41.326Z,14.10
2022-12-19T12:31:45.829Z,11.53
2022-12-19T12:31:53.473Z,15.03
2022-12-19T12:35:40.504Z,10.23
2022-12-19T12:38:24.427Z,8.43
2022-12-19T12:41:10.675Z,8.83
2022-12-19T12:43:49.177Z,7.50
2022-12-19T12:46:30.638Z,8.87
2022-12-19T12:49:06.342Z,9.88
2022-12-19T12:51:36.915Z,12.73
2022-12-19T12:54:11.169Z,7.72
2022-12-19T12:56:42.361Z,8.07
2022-12-19T12:59:27.337Z,9.13
2022-12-19T13:02:00.146Z,8.45
2022-12-19T13:04:35.369Z,7.53
2022-12-19T13:07:17.049Z,4.97
2022-12-19T13:09:49.921Z,6.00
2022-12-19T13:12:47.192Z,7.67
2022-12-19T13:15:32.385Z,6.33
2022-12-19T13:18:05.162Z,5.23
2022-12-19T13:20:48.960Z,6.57
2022-12-19T13:23:38.092Z,6.83
2022-12-19T13:26:25.979Z,6.40
2022-12-19T13:28:55.713Z,6.73
2022-12-19T13:31:25.604Z,7.27
2022-12-19T13:33:58.488Z,7.77
2022-12-19T13:39:51.598Z,7.37
2022-12-19T13:39:55.328Z,10.03
2022-12-19T13:42:31.339Z,9.03
2022-12-19T13:45:04.277Z,6.33
2022-12-19T13:47:37.010Z,6.05
2022-12-19T13:50:24.939Z,9.38
2022-12-19T13:52:55.373Z,8.03
2022-12-19T13:55:27.014Z,6.13
2022-12-19T13:57:57.296Z,5.90
2022-12-19T14:00:39.110Z,7.13
2022-12-19T14:03:12.113Z,8.07
2022-12-19T14:06:17.277Z,6.77
2022-12-19T14:08:19.811Z,5.92
2022-12-19T14:11:32.502Z,8.67
2022-12-19T14:14:01.379Z,7.72
2022-12-19T14:16:18.688Z,7.55
2022-12-19T14:18:51.747Z,5.92
2022-12-19T14:22:04.179Z,5.53
2022-12-19T14:24:16.524Z,7.50
2022-12-19T14:28:26.078Z,5.93
2022-12-19T14:29:38.931Z,4.05
2022-12-19T14:32:24.214Z,7.25
2022-12-19T14:35:29.588Z,6.80
2022-12-19T14:37:03.889Z,9.00
2022-12-19T14:39:36.378Z,11.53
2022-12-19T14:42:49.358Z,9.20
2022-12-19T14:52:51.263Z,11.25
2022-12-19T14:54:01.419Z,6.93
2022-12-19T14:54:31.519Z,7.33
2022-12-19T14:56:12.352Z,9.10
2022-12-19T14:58:55.898Z,7.72
2022-12-19T15:01:09.698Z,8.27
2022-12-19T15:03:41.290Z,5.45
2022-12-19T15:06:48.322Z,6.55
2022-12-19T15:11:00.808Z,9.97
2022-12-19T15:11:53.709Z,5.33
2022-12-19T15:14:54.588Z,4.40
2022-12-19T15:17:05.673Z,13.97
2022-12-19T15:19:35.456Z,5.63
2022-12-19T15:22:05.683Z,7.03
2022-12-19T15:24:35.848Z,6.97
2022-12-19T15:27:05.389Z,9.15
2022-12-19T15:29:35.688Z,11.73
2022-12-19T15:32:06.691Z,12.30
2022-12-19T15:34:44.807Z,6.17
2022-12-19T15:37:12.311Z,3.57
2022-12-19T15:39:43.772Z,5.73
2022-12-19T15:42:24.801Z,6.94
2022-12-19T15:44:56.661Z,3.60
2022-12-19T15:47:35.020Z,6.73
2022-12-19T15:50:25.310Z,4.76
2022-12-19T15:52:57.573Z,3.67
2022-12-19T15:55:30.321Z,5.93
2022-12-19T15:58:03.376Z,3.37
2022-12-19T16:00:37.935Z,6.53
2022-12-19T16:03:25.538Z,3.43
2022-12-19T16:05:41.335Z,6.90
2022-12-19T16:08:16.697Z,3.77
2022-12-19T16:10:57.597Z,4.53
2022-12-19T16:13:30.697Z,4.77
2022-12-19T16:16:00.392Z,5.03
2022-12-19T16:18:30.211Z,6.20
2022-12-19T16:20:59.951Z,5.43
2022-12-19T16:25:59.841Z,4.93
2022-12-19T16:28:34.880Z,4.42
2022-12-19T16:31:07.666Z,3.67
2022-12-19T16:33:37.155Z,10.20
2022-12-19T16:36:09.767Z,6.67
2022-12-19T16:38:39.536Z,5.10
2022-12-19T16:41:17.853Z,3.63
2022-12-19T16:43:47.999Z,5.08
2022-12-19T16:46:21.012Z,7.25
2022-12-19T16:48:51.483Z,4.87
2022-12-19T16:51:24.116Z,4.40
2022-12-19T16:53:57.817Z,5.93
2022-12-19T16:56:39.133Z,6.53
2022-12-19T16:59:14.699Z,9.90
2022-12-19T17:01:45.742Z,3.87
2022-12-19T17:04:17.434Z,2.57
2022-12-19T17:06:47.617Z,5.78
2022-12-19T17:09:20.009Z,4.70
2022-12-19T17:11:52.845Z,4.50
2022-12-19T17:14:25.518Z,4.83
2022-12-19T17:16:55.924Z,4.93
2022-12-19T17:19:37.914Z,5.73
2022-12-19T17:22:18.115Z,7.13
2022-12-19T17:24:49.632Z,4.63
2022-12-19T17:27:20.946Z,5.10
2022-12-19T17:29:50.701Z,5.40
2022-12-19T17:32:24.208Z,8.10
2022-12-19T17:34:52.990Z,3.93
2022-12-19T17:37:23.039Z,4.27
2022-12-19T17:39:53.056Z,4.92
2022-12-19T17:42:25.791Z,5.47
2022-12-19T17:44:55.231Z,4.25
2022-12-19T17:47:25.331Z,4.93
2022-12-19T17:49:55.100Z,5.77
2022-12-19T17:52:24.675Z,6.50
2022-12-19T17:54:54.873Z,5.15
2022-12-19T17:57:26.786Z,4.90
2022-12-19T17:59:56.821Z,6.60
2022-12-19T18:02:28.294Z,4.55
2022-12-19T18:04:58.469Z,4.50
2022-12-19T18:07:28.172Z,4.07
2022-12-19T18:09:57.969Z,5.73
2022-12-19T18:12:27.892Z,7.37
2022-12-19T18:14:57.929Z,4.90
2022-12-19T18:17:27.782Z,6.17
2022-12-19T18:19:57.655Z,4.17
2022-12-19T18:22:27.715Z,5.80
2022-12-19T18:24:57.922Z,5.35
2022-12-19T18:27:28.222Z,5.63
2022-12-19T18:29:58.012Z,6.83
2022-12-19T18:32:27.619Z,6.83
2022-12-19T18:34:58.525Z,8.50
2022-12-19T18:37:28.254Z,3.80
2022-12-19T18:39:58.025Z,6.27
2022-12-19T18:42:27.746Z,9.15
2022-12-19T18:44:57.459Z,6.13
2022-12-19T18:47:27.653Z,4.70
2022-12-19T18:49:57.755Z,4.77
2022-12-19T18:52:27.212Z,6.17
2022-12-19T18:54:56.976Z,10.53
2022-12-19T18:57:26.722Z,7.57
2022-12-19T18:59:56.550Z,4.47
2022-12-19T19:02:29.367Z,8.58
2022-12-19T19:05:00.096Z,6.93
2022-12-19T19:07:29.645Z,7.22
2022-12-19T19:09:59.397Z,7.33
2022-12-19T19:12:39.581Z,4.50
2022-12-19T19:15:09.672Z,6.83
2022-12-19T19:17:39.984Z,4.43
2022-12-19T19:20:10.845Z,4.78
2022-12-19T19:22:41.467Z,7.83
2022-12-19T19:25:11.675Z,5.53
2022-12-19T19:27:42.116Z,3.30
2022-12-19T19:30:14.273Z,5.45
2022-12-19T19:32:49.740Z,4.13
2022-12-19T19:35:21.998Z,4.17
2022-12-19T19:37:54.817Z,5.70
2022-12-19T19:40:24.655Z,8.10
2022-12-19T19:42:54.716Z,5.03
2022-12-19T19:45:24.199Z,6.03
2022-12-19T19:47:54.108Z,7.30
2022-12-19T19:50:24.627Z,7.80
2022-12-19T19:52:54.607Z,6.90
2022-12-19T19:55:24.753Z,5.05
2022-12-19T19:57:55.221Z,5.80
2022-12-19T20:00:24.763Z,8.57
2022-12-19T20:02:54.930Z,7.03
2022-12-19T20:05:24.771Z,5.03
2022-12-19T20:07:54.842Z,3.63
2022-12-19T20:10:24.572Z,3.62
2022-12-19T20:12:53.995Z,4.75
2022-12-19T20:15:23.994Z,5.58
2022-12-19T20:17:55.088Z,6.33
2022-12-19T20:20:25.124Z,5.53
2022-12-19T20:22:54.896Z,5.10
2022-12-19T20:25:24.403Z,7.73
2022-12-19T20:27:54.227Z,7.30
2022-12-19T20:30:24.074Z,6.42
2022-12-19T20:32:54.747Z,6.10
2022-12-19T20:35:24.520Z,6.55
2022-12-19T20:37:54.300Z,6.57
2022-12-19T20:40:23.799Z,6.40
2022-12-19T20:42:53.609Z,7.03
2022-12-19T20:45:23.741Z,5.92
2022-12-19T20:47:53.541Z,4.60
2022-12-19T20:50:23.417Z,8.47
2022-12-19T20:52:53.219Z,9.87
2022-12-19T20:55:23.114Z,5.87
2022-12-19T20:57:52.582Z,7.60
2022-12-19T21:00:22.715Z,7.67
2022-12-19T21:03:26.712Z,6.83
2022-12-19T21:05:24.047Z,4.83
2022-12-19T21:07:53.737Z,6.73
2022-12-19T21:10:23.285Z,6.10
2022-12-19T21:12:53.091Z,6.87
2022-12-19T21:15:23.071Z,4.87
2022-12-19T21:17:52.914Z,5.93
2022-12-19T21:20:22.706Z,8.33
2022-12-19T21:22:52.727Z,5.50
2022-12-19T21:25:22.300Z,6.05
2022-12-19T21:27:52.183Z,6.57
2022-12-19T21:30:22.395Z,7.72
2022-12-19T21:32:52.238Z,6.90
2022-12-19T21:35:22.176Z,5.75
2022-12-19T21:37:52.048Z,7.37
2022-12-19T21:40:22.058Z,5.07
2022-12-19T21:42:52.110Z,5.58
2022-12-19T21:45:21.735Z,5.87
2022-12-19T21:47:51.488Z,7.77
2022-12-19T21:50:21.391Z,5.45
2022-12-19T21:52:55.717Z,6.87
2022-12-19T21:55:22.647Z,9.70
2022-12-19T21:57:52.459Z,3.90
2022-12-19T22:00:22.419Z,4.63
2022-12-19T22:03:13.148Z,6.80
2022-12-19T22:05:24.547Z,3.83
2022-12-19T22:07:54.580Z,6.67
2022-12-19T22:10:24.354Z,3.67
2022-12-19T22:12:54.401Z,6.20
2022-12-19T22:15:24.179Z,6.12
2022-12-19T22:17:53.878Z,8.13
2022-12-19T22:20:23.379Z,5.87
2022-12-19T22:22:53.136Z,5.13
2022-12-19T22:25:22.971Z,7.70
2022-12-19T22:27:54.293Z,4.70
2022-12-19T22:30:24.069Z,3.65
2022-12-19T22:32:53.901Z,8.60
2022-12-19T22:35:23.649Z,4.65
2022-12-19T22:40:22.976Z,5.92
2022-12-19T22:42:53.308Z,5.63
2022-12-19T22:45:23.057Z,5.67
2022-12-19T22:47:52.875Z,2.73
2022-12-19T22:50:22.328Z,5.27
2022-12-19T22:52:52.156Z,3.50
2022-12-19T22:55:22.190Z,3.08
2022-12-19T22:57:52.482Z,3.47
2022-12-19T23:00:22.570Z,5.27
2022-12-19T23:02:52.778Z,4.28
2022-12-19T23:05:22.300Z,5.80
2022-12-19T23:07:52.053Z,4.63
2022-12-19T23:10:21.931Z,5.20
2022-12-19T23:12:52.136Z,3.58
2022-12-19T23:15:21.882Z,4.03
2022-12-19T23:17:51.408Z,3.90
2022-12-19T23:20:21.184Z,3.40
2022-12-19T23:22:50.945Z,3.47
2022-12-19T23:25:21.237Z,2.60
2022-12-19T23:27:51.308Z,5.37
2022-12-19T23:30:21.381Z,3.22
2022-12-19T23:32:51.302Z,4.13
2022-12-19T23:35:20.865Z,5.60
2022-12-19T23:37:50.972Z,4.78
2022-12-19T23:40:20.545Z,3.17
2022-12-19T23:42:50.044Z,3.85
2022-12-19T23:45:19.545Z,5.17
2022-12-19T23:47:49.126Z,3.17
2022-12-19T23:50:18.943Z,4.20
2022-12-19T23:52:48.682Z,3.83
2022-12-19T23:55:18.279Z,2.23
2022-12-19T23:57:48.020Z,4.00
